Time;durP1;ratioP1;P1;durP2;ratioP2;P2;SDS_P1;SDS_P2;PMS_P1;PMS_P2;Temp;Humidity;BMP_temperature;BMP_pressure;BME280_temperature;BME280_humidity;BME280_pressure;Samples;Min_cycle;Max_cycle;Signal;HPM_P1;HPM_P2
2021/04/30 00:00:30;;;;;;;11.68;8.38;;;;;;;11.75;100.00;95736.00;5017971;28;20294;-63
2021/04/30 00:02:58;;;;;;;9.77;8.05;;;;;;;11.50;100.00;95735.25;5005954;28;20425;-65
2021/04/30 00:05:28;;;;;;;10.50;8.43;;;;;;;11.74;100.00;95727.28;5008764;28;20104;-63
2021/04/30 00:07:56;;;;;;;10.82;8.27;;;;;;;11.42;100.00;95728.16;5010230;28;20070;-64
2021/04/30 00:10:24;;;;;;;10.82;8.60;;;;;;;11.44;100.00;95728.00;5007133;28;20061;-63
2021/04/30 00:12:52;;;;;;;9.50;7.90;;;;;;;11.43;100.00;95731.63;5002960;28;20089;-64
2021/04/30 00:15:19;;;;;;;10.68;8.57;;;;;;;11.63;100.00;95725.81;5014614;28;20472;-63
2021/04/30 00:17:47;;;;;;;10.23;8.40;;;;;;;11.63;100.00;95720.53;5006815;28;20106;-62
2021/04/30 00:20:16;;;;;;;10.43;8.68;;;;;;;11.56;100.00;95722.22;5010372;28;20554;-63
2021/04/30 00:22:44;;;;;;;9.90;8.25;;;;;;;11.48;100.00;95724.03;5007752;28;20112;-65
2021/04/30 00:25:12;;;;;;;11.38;8.32;;;;;;;11.61;100.00;95719.88;5009035;28;20109;-63
2021/04/30 00:27:40;;;;;;;9.60;8.48;;;;;;;11.52;100.00;95712.94;5013797;28;20072;-64
2021/04/30 00:30:08;;;;;;;10.80;8.10;;;;;;;11.70;100.00;95722.47;5005864;28;20089;-64
2021/04/30 00:32:36;;;;;;;9.85;8.02;;;;;;;11.72;100.00;95717.88;4997327;28;20072;-64
2021/04/30 00:35:04;;;;;;;10.02;8.07;;;;;;;11.56;100.00;95718.72;5009887;28;20074;-63
2021/04/30 00:37:32;;;;;;;10.45;8.27;;;;;;;11.19;100.00;95711.38;5010327;28;20061;-64
2021/04/30 00:40:00;;;;;;;9.80;8.27;;;;;;;11.32;100.00;95709.88;5009994;28;20465;-64
2021/04/30 00:42:28;;;;;;;10.27;8.82;;;;;;;11.16;100.00;95716.00;5011306;28;20358;-63
2021/04/30 00:44:55;;;;;;;10.15;8.65;;;;;;;11.15;100.00;95718.81;5015081;28;20069;-65
2021/04/30 00:47:27;;;;;;;12.18;9.00;;;;;;;10.93;100.00;95715.81;5004556;28;20066;-62
2021/04/30 00:49:55;;;;;;;11.98;8.73;;;;;;;10.89;100.00;95718.97;5014505;28;20069;-63
2021/04/30 00:52:23;;;;;;;10.30;8.55;;;;;;;10.85;100.00;95720.28;5010910;28;20585;-63
2021/04/30 00:54:51;;;;;;;11.23;8.68;;;;;;;10.65;100.00;95722.41;5012127;28;20097;-63
2021/04/30 00:57:19;;;;;;;9.90;8.52;;;;;;;10.82;100.00;95715.34;5002351;28;20070;-63
2021/04/30 00:59:46;;;;;;;9.38;8.07;;;;;;;10.63;100.00;95722.59;5006257;28;20076;-63
2021/04/30 01:02:14;;;;;;;10.02;8.30;;;;;;;10.49;100.00;95722.38;5007096;28;20058;-64
2021/04/30 01:04:42;;;;;;;10.20;8.77;;;;;;;10.42;100.00;95723.03;5009912;28;20086;-64
2021/04/30 01:07:10;;;;;;;10.05;9.00;;;;;;;10.35;100.00;95722.03;4992062;28;20042;-63
2021/04/30 01:09:37;;;;;;;9.82;8.55;;;;;;;10.15;100.00;95732.00;5007679;28;20073;-62
2021/04/30 01:12:08;;;;;;;10.73;9.10;;;;;;;10.17;100.00;95739.75;5011599;28;20070;-63
2021/04/30 01:14:36;;;;;;;;;;;;;;;10.05;100.00;95743.63;4998338;28;20070;-63
2021/04/30 01:17:03;;;;;;;12.05;9.52;;;;;;;10.04;100.00;95740.19;4994503;28;20012;-63
2021/04/30 01:19:31;;;;;;;12.80;9.50;;;;;;;10.11;100.00;95737.72;5007809;28;20088;-63
2021/04/30 01:22:00;;;;;;;12.00;9.68;;;;;;;10.06;100.00;95740.84;5009692;28;20488;-64
2021/04/30 01:24:28;;;;;;;13.13;10.63;;;;;;;9.91;100.00;95739.78;5012270;28;21389;-63
2021/04/30 01:26:56;;;;;;;15.80;9.95;;;;;;;10.18;100.00;95747.47;5014217;28;20072;-62
2021/04/30 01:29:24;;;;;;;12.50;10.00;;;;;;;9.87;100.00;95749.00;5006028;28;20108;-61
2021/04/30 01:31:52;;;;;;;11.73;9.27;;;;;;;9.85;100.00;95745.72;5009966;28;20072;-64
2021/04/30 01:34:19;;;;;;;11.75;9.35;;;;;;;9.84;100.00;95741.41;5016257;28;20511;-64
2021/04/30 01:36:48;;;;;;;10.27;8.68;;;;;;;9.88;100.00;95751.47;5008065;28;20086;-65
2021/04/30 01:39:17;;;;;;;10.70;8.95;;;;;;;9.83;100.00;95755.56;5009665;28;20069;-62
2021/04/30 01:41:44;;;;;;;11.63;9.38;;;;;;;9.74;100.00;95759.97;5009363;28;20508;-62
2021/04/30 01:44:13;;;;;;;12.27;9.77;;;;;;;9.92;100.00;95760.72;5008831;28;20128;-62
2021/04/30 01:46:41;;;;;;;11.88;8.88;;;;;;;9.84;100.00;95762.47;5008188;28;20069;-63
2021/04/30 01:49:10;;;;;;;12.02;9.52;;;;;;;9.85;100.00;95762.34;5016206;28;20072;-63
2021/04/30 01:51:37;;;;;;;12.88;9.98;;;;;;;9.95;100.00;95765.66;4991359;28;20523;-63
2021/04/30 01:54:06;;;;;;;11.65;9.77;;;;;;;9.83;100.00;95769.56;5005779;28;20074;-62
2021/04/30 01:56:34;;;;;;;13.68;10.00;;;;;;;9.85;100.00;95764.16;5006128;28;20038;-64
2021/04/30 01:59:02;;;;;;;11.38;9.35;;;;;;;9.83;100.00;95763.47;5002445;28;20480;-62
2021/04/30 02:01:30;;;;;;;10.48;9.07;;;;;;;10.10;100.00;95758.00;5012068;28;20481;-64
2021/04/30 02:03:58;;;;;;;13.02;9.48;;;;;;;10.25;100.00;95750.28;4992817;28;20553;-63
2021/04/30 02:06:26;;;;;;;10.18;8.90;;;;;;;10.43;100.00;95745.78;5003021;28;20068;-64
2021/04/30 02:08:55;;;;;;;11.00;8.90;;;;;;;10.50;100.00;95750.41;5017408;28;20038;-62
2021/04/30 02:11:23;;;;;;;11.85;9.05;;;;;;;10.25;100.00;95754.75;4988986;28;20103;-64
2021/04/30 02:13:52;;;;;;;12.20;9.88;;;;;;;10.35;100.00;95758.09;5005995;28;20471;-63
2021/04/30 02:16:20;;;;;;;11.45;9.07;;;;;;;10.52;100.00;95743.97;5011260;28;20081;-63
2021/04/30 02:18:47;;;;;;;10.27;8.73;;;;;;;10.72;100.00;95748.97;5008888;28;20088;-61
2021/04/30 02:21:15;;;;;;;12.68;9.77;;;;;;;10.56;100.00;95745.28;5006499;28;20058;-63
2021/04/30 02:23:43;;;;;;;10.45;8.98;;;;;;;10.74;100.00;95752.25;5007698;28;20096;-64
2021/04/30 02:26:11;;;;;;;11.40;9.05;;;;;;;10.49;100.00;95746.94;5008548;28;20061;-64
2021/04/30 02:28:39;;;;;;;10.43;8.80;;;;;;;10.79;100.00;95752.59;5003716;28;20072;-63
2021/04/30 02:31:08;;;;;;;12.40;9.60;;;;;;;10.93;100.00;95742.19;5001083;28;20081;-64
2021/04/30 02:33:36;;;;;;;12.57;10.07;;;;;;;11.00;100.00;95744.19;5004230;28;20077;-63
2021/04/30 02:36:04;;;;;;;10.48;8.93;;;;;;;11.11;100.00;95742.06;5009402;28;20068;-64
2021/04/30 02:38:32;;;;;;;9.70;8.70;;;;;;;11.27;100.00;95743.84;5012357;28;20066;-64
2021/04/30 02:40:59;;;;;;;10.82;9.70;;;;;;;11.33;100.00;95745.00;5005664;28;20061;-64
2021/04/30 02:43:27;;;;;;;10.68;9.05;;;;;;;11.08;100.00;95744.19;5003418;28;20475;-63
2021/04/30 02:45:57;;;;;;;12.75;10.15;;;;;;;10.62;100.00;95755.19;5014484;28;20081;-64
2021/04/30 02:48:29;;;;;;;14.05;10.13;;;;;;;10.65;100.00;95759.31;5005984;28;20066;-64
2021/04/30 02:50:57;;;;;;;10.93;9.23;;;;;;;10.48;100.00;95758.47;5010863;28;20069;-65
2021/04/30 02:53:25;;;;;;;12.23;9.27;;;;;;;10.47;100.00;95761.28;5005247;28;20070;-64
2021/04/30 02:55:53;;;;;;;10.43;9.18;;;;;;;10.40;100.00;95755.81;5006221;28;20520;-64
2021/04/30 02:58:21;;;;;;;10.40;9.07;;;;;;;10.67;100.00;95752.09;5005638;28;20085;-63
2021/04/30 03:00:48;;;;;;;10.95;9.32;;;;;;;10.68;100.00;95753.72;5012201;28;20050;-64
2021/04/30 03:03:16;;;;;;;10.63;9.35;;;;;;;10.28;100.00;95763.19;4998979;28;20046;-65
2021/04/30 03:05:45;;;;;;;10.93;9.32;;;;;;;10.32;100.00;95755.78;5012370;28;20072;-63
2021/04/30 03:08:12;;;;;;;12.30;9.50;;;;;;;10.56;100.00;95752.38;5011175;28;20524;-61
2021/04/30 03:10:41;;;;;;;10.73;9.57;;;;;;;10.62;100.00;95751.75;5003975;28;20068;-63
2021/04/30 03:13:08;;;;;;;11.82;9.73;;;;;;;10.67;100.00;95752.91;5016877;28;20077;-64
2021/04/30 03:15:35;;;;;;;11.00;9.80;;;;;;;10.61;100.00;95755.38;5008745;28;20546;-64
2021/04/30 03:18:03;;;;;;;12.23;9.57;;;;;;;10.51;100.00;95752.88;5006499;28;20073;-63
2021/04/30 03:20:31;;;;;;;13.23;10.18;;;;;;;10.65;100.00;95751.41;5009110;28;20062;-63
2021/04/30 03:22:59;;;;;;;14.20;10.30;;;;;;;10.44;100.00;95757.97;5006180;28;20075;-63
2021/04/30 03:25:27;;;;;;;11.18;9.98;;;;;;;10.69;100.00;95750.91;5007473;28;20069;-60
2021/04/30 03:27:54;;;;;;;11.50;10.40;;;;;;;10.73;100.00;95742.69;5010698;28;20082;-63
2021/04/30 03:30:22;;;;;;;12.20;10.07;;;;;;;10.79;100.00;95742.03;5004399;28;20061;-63
2021/04/30 03:32:49;;;;;;;14.40;10.57;;;;;;;10.89;100.00;95735.63;5006897;28;20066;-63
2021/04/30 03:35:18;;;;;;;13.35;10.90;;;;;;;10.85;100.00;95739.56;5007749;28;20078;-63
2021/04/30 03:37:46;;;;;;;13.15;10.93;;;;;;;10.89;100.00;95747.97;5010726;28;20072;-62
2021/04/30 03:40:16;;;;;;;11.27;9.73;;;;;;;10.68;100.00;95759.00;5009101;28;20103;-63
2021/04/30 03:42:44;;;;;;;13.30;10.20;;;;;;;10.59;100.00;95765.25;5014435;28;20080;-63
2021/04/30 03:45:13;;;;;;;13.98;11.65;;;;;;;10.65;100.00;95752.25;5006532;28;20065;-63
2021/04/30 03:47:40;;;;;;;13.95;11.38;;;;;;;10.68;100.00;95751.91;5009846;28;20069;-63
2021/04/30 03:50:09;;;;;;;14.00;11.55;;;;;;;10.68;100.00;95749.28;5003206;28;20069;-61
2021/04/30 03:52:37;;;;;;;16.88;13.02;;;;;;;10.60;100.00;95751.91;5002574;28;20235;-61
2021/04/30 03:55:05;;;;;;;16.17;13.02;;;;;;;10.46;100.00;95742.00;5011185;28;20206;-63
2021/04/30 03:57:34;;;;;;;18.63;14.25;;;;;;;10.36;100.00;95755.31;5012462;28;20082;-63
2021/04/30 04:00:01;;;;;;;19.65;14.40;;;;;;;10.23;100.00;95770.72;4991276;28;20066;-63
2021/04/30 04:02:29;;;;;;;16.50;13.88;;;;;;;10.07;100.00;95763.56;5006736;28;20072;-63
2021/04/30 04:04:56;;;;;;;19.08;13.80;;;;;;;9.86;100.00;95766.59;5012735;28;20078;-63
2021/04/30 04:07:24;;;;;;;18.80;14.05;;;;;;;9.94;100.00;95763.19;5011859;28;20061;-64
2021/04/30 04:09:52;;;;;;;20.88;14.90;;;;;;;9.93;100.00;95762.34;5011694;28;20445;-64
2021/04/30 04:12:19;;;;;;;21.17;15.77;;;;;;;9.99;100.00;95769.63;5006538;28;20057;-62
2021/04/30 04:14:48;;;;;;;17.75;14.73;;;;;;;9.75;100.00;95765.06;4990648;28;20038;-63
2021/04/30 04:17:16;;;;;;;16.77;14.25;;;;;;;9.83;100.00;95763.47;4994519;28;20128;-63
2021/04/30 04:19:54;;;;;;;19.70;14.63;;;;;;;10.01;100.00;95763.38;5012077;28;20504;-63
2021/04/30 04:22:22;;;;;;;19.05;14.63;;;;;;;9.95;100.00;95764.84;5005466;28;20069;-63
2021/04/30 04:24:50;;;;;;;18.98;14.77;;;;;;;9.90;100.00;95753.94;5016178;28;20473;-62
2021/04/30 04:27:22;;;;;;;20.75;16.25;;;;;;;9.93;100.00;95748.38;5004948;28;20457;-63
2021/04/30 04:29:51;;;;;;;25.35;16.75;;;;;;;9.78;100.00;95750.78;5008350;28;20070;-63
2021/04/30 04:32:18;;;;;;;21.83;16.73;;;;;;;9.90;100.00;95748.69;5015342;28;20072;-64
2021/04/30 04:34:46;;;;;;;20.33;16.08;;;;;;;9.87;100.00;95751.63;5010150;28;20066;-64
2021/04/30 04:37:13;;;;;;;22.88;17.30;;;;;;;10.05;100.00;95751.53;5026487;23;20516;-55
2021/04/30 04:39:41;;;;;;;22.95;17.08;;;;;;;10.19;100.00;95757.03;5029656;28;20106;-52
2021/04/30 04:42:09;;;;;;;25.23;18.27;;;;;;;10.33;100.00;95770.63;5024353;28;20098;-51
2021/04/30 04:44:37;;;;;;;22.83;18.15;;;;;;;10.72;100.00;95762.13;5026817;28;20077;-52
2021/04/30 04:47:06;;;;;;;23.55;17.73;;;;;;;10.87;100.00;95757.84;5017364;28;20448;-53
2021/04/30 04:49:33;;;;;;;22.90;17.50;;;;;;;10.99;100.00;95758.38;5003557;28;20065;-53
2021/04/30 04:52:01;;;;;;;23.67;17.52;;;;;;;10.83;100.00;95767.09;5009163;28;20074;-54
2021/04/30 04:54:31;;;;;;;21.63;16.98;;;;;;;10.74;100.00;95763.63;5010093;28;20495;-51
2021/04/30 04:56:59;;;;;;;22.75;16.77;;;;;;;11.09;100.00;95774.88;5012437;28;20080;-53
2021/04/30 04:59:26;;;;;;;20.40;15.45;;;;;;;10.99;100.00;95790.03;5006537;28;20068;-50
2021/04/30 05:01:54;;;;;;;19.40;15.63;;;;;;;10.78;100.00;95795.78;5015388;28;20531;-55
2021/04/30 05:04:22;;;;;;;21.63;16.13;;;;;;;10.60;100.00;95791.47;5003839;28;20069;-53
2021/04/30 05:06:50;;;;;;;22.80;17.02;;;;;;;10.45;100.00;95803.59;5016005;28;20543;-51
2021/04/30 05:09:17;;;;;;;21.00;16.83;;;;;;;10.56;100.00;95805.09;5007842;28;20073;-50
2021/04/30 05:11:45;;;;;;;23.52;18.05;;;;;;;10.56;100.00;95808.56;5009165;28;20065;-55
2021/04/30 05:14:12;;;;;;;22.75;17.45;;;;;;;10.62;100.00;95805.28;5003330;28;20073;-49
2021/04/30 05:16:53;;;;;;;26.08;17.75;;;;;;;10.84;100.00;95808.28;5010002;28;20631;-55
2021/04/30 05:19:22;;;;;;;21.25;16.65;;;;;;;11.43;100.00;95805.56;5007156;28;20073;-56
2021/04/30 05:21:49;;;;;;;21.65;16.98;;;;;;;11.46;100.00;95802.56;5009483;28;20517;-52
2021/04/30 05:24:17;;;;;;;23.02;17.00;;;;;;;13.06;100.00;95795.19;5014401;28;20680;-52
2021/04/30 05:26:44;;;;;;;20.17;16.05;;;;;;;13.66;100.00;95795.41;5009595;28;20057;-53
2021/04/30 05:29:14;;;;;;;19.88;15.65;;;;;;;14.11;100.00;95794.47;5005683;28;20524;-51
2021/04/30 05:31:42;;;;;;;18.60;14.87;;;;;;;14.82;100.00;95796.59;5012236;28;20077;-51
2021/04/30 05:34:10;;;;;;;17.75;14.63;;;;;;;14.98;100.00;95787.59;5007564;28;21029;-54
2021/04/30 05:36:38;;;;;;;18.92;15.05;;;;;;;14.27;100.00;95798.75;5015519;28;20105;-55
2021/04/30 05:39:06;;;;;;;20.33;15.65;;;;;;;13.83;100.00;95799.53;5008250;28;20066;-52
2021/04/30 05:41:33;;;;;;;21.27;15.38;;;;;;;13.51;100.00;95796.19;5005455;28;20057;-51
2021/04/30 05:44:01;;;;;;;18.98;15.25;;;;;;;13.29;100.00;95800.53;5010975;28;20076;-54
2021/04/30 05:46:28;;;;;;;20.55;14.77;;;;;;;13.16;100.00;95799.44;5012256;28;20073;-50
2021/04/30 05:48:56;;;;;;;18.20;14.00;;;;;;;12.88;100.00;95805.25;5008670;28;20088;-53
2021/04/30 05:51:24;;;;;;;16.77;13.75;;;;;;;12.30;100.00;95793.31;5011500;28;20076;-51
2021/04/30 05:53:52;;;;;;;18.08;14.07;;;;;;;12.31;100.00;95794.97;5009902;28;20065;-49
2021/04/30 05:56:30;;;;;;;18.30;14.73;;;;;;;12.39;100.00;95805.53;5004079;28;20076;-56
2021/04/30 05:58:58;;;;;;;17.77;13.88;;;;;;;12.89;100.00;95795.50;5007424;28;20080;-49
2021/04/30 06:01:25;;;;;;;17.63;14.15;;;;;;;12.32;100.00;95801.91;5006933;28;20104;-51
2021/04/30 06:03:53;;;;;;;19.55;14.68;;;;;;;12.44;100.00;95803.19;5003176;28;20089;-52
2021/04/30 06:06:21;;;;;;;18.25;14.85;;;;;;;12.45;100.00;95802.16;5011586;28;20071;-52
2021/04/30 06:08:48;;;;;;;18.17;14.25;;;;;;;12.49;100.00;95798.22;5012429;28;20061;-53
2021/04/30 06:11:17;;;;;;;17.50;13.63;;;;;;;12.52;100.00;95800.47;5002378;28;20085;-50
2021/04/30 06:13:45;;;;;;;17.38;13.52;;;;;;;12.52;100.00;95813.69;5009522;28;20065;-52
2021/04/30 06:16:12;;;;;;;17.02;14.05;;;;;;;12.52;100.00;95815.53;5008896;28;20464;-49
2021/04/30 06:18:40;;;;;;;17.77;13.02;;;;;;;12.82;100.00;95829.75;5009271;28;20085;-50
2021/04/30 06:21:08;;;;;;;18.33;12.93;;;;;;;12.88;100.00;95842.31;4999827;28;20073;-58
2021/04/30 06:23:35;;;;;;;17.58;14.15;;;;;;;13.16;100.00;95836.50;5004170;28;20069;-53
2021/04/30 06:26:03;;;;;;;16.83;13.27;;;;;;;13.15;100.00;95829.59;5004927;28;20084;-57
2021/04/30 06:28:31;;;;;;;15.95;13.05;;;;;;;13.69;100.00;95837.44;5010241;28;20686;-53
2021/04/30 06:30:59;;;;;;;15.05;12.85;;;;;;;13.75;97.76;95844.69;5009109;28;20522;-54
2021/04/30 06:33:26;;;;;;;14.23;12.40;;;;;;;14.30;88.05;95855.91;5004267;28;20551;-51
2021/04/30 06:35:54;;;;;;;18.42;13.32;;;;;;;14.36;91.60;95845.41;5009985;28;20092;-55
2021/04/30 06:38:21;;;;;;;15.07;12.95;;;;;;;14.32;100.00;95851.25;5001260;28;20065;-50
2021/04/30 06:40:49;;;;;;;15.68;12.40;;;;;;;14.57;87.67;95844.69;5011994;28;20961;-52
2021/04/30 06:43:16;;;;;;;16.38;12.57;;;;;;;14.51;88.87;95840.09;5007021;28;20093;-55
2021/04/30 06:45:45;;;;;;;16.23;12.85;;;;;;;14.35;90.88;95846.41;5009814;28;20089;-50
2021/04/30 06:48:13;;;;;;;15.68;12.13;;;;;;;13.85;92.82;95847.09;5009547;28;20077;-56
2021/04/30 06:50:40;;;;;;;15.05;12.32;;;;;;;14.11;94.06;95842.19;5010931;28;20065;-54
2021/04/30 06:53:07;;;;;;;15.40;12.43;;;;;;;14.14;93.15;95838.34;5006381;28;20072;-54
2021/04/30 06:55:35;;;;;;;15.43;12.13;;;;;;;13.92;96.98;95826.81;5006816;28;20066;-52
2021/04/30 06:58:03;;;;;;;17.70;12.73;;;;;;;13.64;99.19;95832.69;4997994;28;20092;-52
2021/04/30 07:00:30;;;;;;;16.63;13.38;;;;;;;13.75;97.33;95828.78;5007696;28;20065;-51
2021/04/30 07:02:59;;;;;;;13.50;12.10;;;;;;;13.50;100.00;95830.84;5009365;28;20065;-56
2021/04/30 07:05:27;;;;;;;16.60;13.15;;;;;;;13.51;100.00;95819.22;5011144;28;20068;-52
2021/04/30 07:08:02;;;;;;;16.05;12.75;;;;;;;14.16;100.00;95807.16;5004354;28;20068;-50
2021/04/30 07:10:29;;;;;;;20.77;12.80;;;;;;;13.92;95.38;95813.56;5013175;28;20066;-52
2021/04/30 07:12:57;;;;;;;17.30;12.80;;;;;;;14.09;96.02;95817.69;5015122;28;20069;-55
2021/04/30 07:15:25;;;;;;;14.45;12.13;;;;;;;13.53;95.41;95812.75;5010673;28;20729;-54
2021/04/30 07:17:53;;;;;;;17.02;13.50;;;;;;;13.51;100.00;95808.63;5012117;28;20069;-52
2021/04/30 07:20:21;;;;;;;14.98;12.57;;;;;;;13.26;100.00;95813.31;5012029;28;20061;-53
2021/04/30 07:22:52;;;;;;;15.55;12.50;;;;;;;13.60;98.45;95794.31;4992573;28;20096;-54
2021/04/30 07:25:20;;;;;;;16.65;12.73;;;;;;;13.18;100.00;95802.72;5015974;28;20065;-52
2021/04/30 07:27:47;;;;;;;15.18;12.80;;;;;;;13.33;99.35;95805.47;5017165;28;20069;-52
2021/04/30 07:30:16;;;;;;;16.90;13.65;;;;;;;13.26;95.64;95805.38;5015618;28;20061;-50
2021/04/30 07:32:43;;;;;;;14.85;13.18;;;;;;;13.56;98.41;95787.75;5012336;28;20062;-55
2021/04/30 07:35:32;;;;;;;16.52;13.05;;;;;;;13.51;100.00;95790.09;5009854;28;20563;-52
2021/04/30 07:38:00;;;;;;;15.60;13.02;;;;;;;13.51;100.00;95787.44;5009155;28;20065;-52
2021/04/30 07:40:27;;;;;;;18.23;13.50;;;;;;;14.43;91.97;95781.81;5014293;28;20069;-55
2021/04/30 07:42:56;;;;;;;15.38;12.90;;;;;;;14.14;97.99;95785.31;5016605;28;20073;-54
2021/04/30 07:45:23;;;;;;;16.73;14.20;;;;;;;14.26;100.00;95775.91;5010644;28;20128;-52
2021/04/30 07:47:51;;;;;;;16.00;13.20;;;;;;;14.47;100.00;95770.66;5018656;28;20069;-54
2021/04/30 07:50:19;;;;;;;16.33;12.82;;;;;;;14.23;99.34;95768.31;5012906;28;20469;-54
2021/04/30 07:52:48;;;;;;;16.35;13.80;;;;;;;13.74;100.00;95767.03;5013505;28;20111;-53
2021/04/30 07:55:16;;;;;;;17.00;13.65;;;;;;;13.81;100.00;95756.53;5020573;28;20467;-50
2021/04/30 07:57:43;;;;;;;18.58;15.77;;;;;;;13.83;100.00;95772.22;5014584;28;20077;-51
2021/04/30 08:00:12;;;;;;;17.15;14.48;;;;;;;13.91;100.00;95774.81;5009908;28;20554;-55
2021/04/30 08:02:40;;;;;;;21.85;14.85;;;;;;;14.19;100.00;95777.63;5018213;28;20058;-55
2021/04/30 08:05:09;;;;;;;19.40;14.70;;;;;;;13.76;100.00;95764.19;5010458;28;20073;-52
2021/04/30 08:07:38;;;;;;;15.98;12.57;;;;;;;13.62;100.00;95767.63;5008243;28;20624;-52
2021/04/30 08:10:07;;;;;;;19.92;15.27;;;;;;;13.97;100.00;95766.94;5013668;28;20088;-54
2021/04/30 08:12:34;;;;;;;16.75;14.23;;;;;;;14.18;100.00;95765.41;5012041;28;20475;-55
2021/04/30 08:15:02;;;;;;;19.08;15.52;;;;;;;14.28;100.00;95754.47;5007183;28;20070;-56
2021/04/30 08:17:29;;;;;;;17.90;14.63;;;;;;;14.15;100.00;95747.19;5016735;28;20065;-51
2021/04/30 08:19:59;;;;;;;19.35;15.60;;;;;;;14.54;100.00;95741.56;5012245;28;20069;-51
2021/04/30 08:22:27;;;;;;;18.98;14.52;;;;;;;13.94;100.00;95742.63;5014774;28;20072;-54
2021/04/30 08:24:55;;;;;;;19.48;15.07;;;;;;;14.61;100.00;95737.16;5012071;28;20096;-49
2021/04/30 08:27:24;;;;;;;16.25;13.48;;;;;;;14.32;100.00;95738.03;5011816;28;20072;-51
2021/04/30 08:29:52;;;;;;;17.58;14.18;;;;;;;14.68;100.00;95731.94;5014509;28;20080;-50
2021/04/30 08:32:19;;;;;;;17.48;14.13;;;;;;;14.14;100.00;95734.94;5009582;28;20077;-52
2021/04/30 08:34:47;;;;;;;24.05;15.35;;;;;;;14.20;100.00;95732.34;5009385;28;20077;-55
2021/04/30 08:37:15;;;;;;;19.17;14.98;;;;;;;14.51;100.00;95722.56;5011169;28;20085;-52
2021/04/30 08:39:43;;;;;;;21.60;15.52;;;;;;;14.56;100.00;95728.13;5014563;28;20081;-55
2021/04/30 08:42:10;;;;;;;19.08;15.57;;;;;;;15.19;100.00;95721.19;5005663;28;20061;-53
2021/04/30 08:44:39;;;;;;;17.88;15.07;;;;;;;15.11;100.00;95718.69;5015499;28;20457;-54
2021/04/30 08:47:08;;;;;;;19.10;14.93;;;;;;;15.24;100.00;95717.94;5014042;28;20073;-55
2021/04/30 08:49:35;;;;;;;19.98;14.23;;;;;;;15.00;100.00;95708.53;5000329;28;20076;-52
2021/04/30 08:52:04;;;;;;;17.58;14.88;;;;;;;15.07;93.40;95704.97;5013785;28;20077;-58
2021/04/30 08:54:32;;;;;;;19.83;15.63;;;;;;;15.60;96.72;95702.69;5015261;28;20045;-57
2021/04/30 08:57:02;;;;;;;20.95;16.95;;;;;;;15.64;95.92;95690.66;5005383;28;20077;-58
2021/04/30 08:59:30;;;;;;;16.95;14.25;;;;;;;15.09;92.17;95692.28;5015974;28;20057;-53
2021/04/30 09:01:59;;;;;;;16.40;13.63;;;;;;;15.20;91.92;95690.94;5012604;28;20077;-53
2021/04/30 09:04:27;;;;;;;18.95;14.65;;;;;;;15.46;87.21;95694.84;5008137;28;20471;-54
2021/04/30 09:06:54;;;;;;;17.77;14.50;;;;;;;16.04;86.52;95693.56;5013305;28;20084;-53
2021/04/30 09:09:22;;;;;;;17.75;14.43;;;;;;;15.88;91.58;95688.59;5011347;28;20425;-55
2021/04/30 09:11:52;;;;;;;17.60;14.48;;;;;;;16.10;86.55;95679.50;5006555;28;20072;-51
2021/04/30 09:14:26;;;;;;;17.17;15.25;;;;;;;16.01;90.86;95683.34;5012585;28;20076;-55
2021/04/30 09:17:12;;;;;;;17.80;14.80;;;;;;;16.26;93.68;95678.31;5015134;28;20065;-54
2021/04/30 09:19:46;;;;;;;17.13;14.68;;;;;;;16.60;89.89;95671.25;5010344;28;20520;-53
2021/04/30 09:22:16;;;;;;;19.20;15.60;;;;;;;16.67;85.35;95671.28;5009656;28;20092;-56
2021/04/30 09:24:55;;;;;;;16.55;13.73;;;;;;;16.33;86.42;95665.03;5009675;28;20077;-55
2021/04/30 09:27:35;;;;;;;18.58;14.55;;;;;;;16.58;83.66;95666.13;5008560;28;20057;-57
2021/04/30 09:30:25;;;;;;;15.40;12.60;;;;;;;16.31;85.17;95657.25;5007811;28;20444;-55
2021/04/30 09:33:11;;;;;;;14.73;12.75;;;;;;;16.68;82.25;95662.25;5015584;28;20077;-55
2021/04/30 09:35:40;;;;;;;13.18;10.68;;;;;;;16.38;83.96;95655.44;5009412;28;20092;-53
2021/04/30 09:38:27;;;;;;;13.65;11.93;;;;;;;16.29;87.57;95650.50;5006024;28;20077;-54
2021/04/30 09:41:10;;;;;;;14.13;12.57;;;;;;;17.36;81.96;95640.78;5012487;28;20069;-54
2021/04/30 09:44:00;;;;;;;15.35;13.18;;;;;;;17.36;86.69;95648.78;5015758;28;20073;-53
2021/04/30 09:46:30;;;;;;;14.18;12.70;;;;;;;16.90;87.18;95638.97;5008557;28;20073;-55
2021/04/30 09:49:01;;;;;;;14.50;12.88;;;;;;;16.70;90.01;95649.56;5013232;28;20078;-56
2021/04/30 09:51:46;;;;;;;13.93;12.35;;;;;;;16.26;87.68;95649.06;5014455;28;20132;-53
2021/04/30 09:54:18;;;;;;;13.98;12.10;;;;;;;16.75;88.83;95644.47;5008360;28;20045;-54
2021/04/30 09:56:47;;;;;;;13.20;11.88;;;;;;;17.45;80.16;95636.91;5006819;28;20534;-55
2021/04/30 09:59:35;;;;;;;14.48;11.43;;;;;;;17.25;85.03;95631.59;5010558;28;20065;-54
2021/04/30 10:02:05;;;;;;;13.57;12.18;;;;;;;16.84;84.31;95630.75;5007020;28;20076;-55
2021/04/30 10:04:35;;;;;;;12.50;10.95;;;;;;;17.35;80.17;95620.50;5016372;28;20073;-57
2021/04/30 10:07:04;;;;;;;11.60;10.48;;;;;;;16.97;82.25;95639.81;5010143;28;20540;-53
2021/04/30 10:09:33;;;;;;;11.55;10.35;;;;;;;18.32;71.57;95627.59;5013608;28;20093;-58
2021/04/30 10:12:34;;;;;;;12.40;11.00;;;;;;;18.13;71.02;95631.97;5003064;28;20076;-53
2021/04/30 10:15:02;;;;;;;12.38;10.32;;;;;;;18.22;69.21;95636.06;5001050;28;20732;-56
2021/04/30 10:17:29;;;;;;;13.60;10.40;;;;;;;17.65;77.67;95635.00;5010518;28;20069;-57
2021/04/30 10:19:58;;;;;;;11.93;10.73;;;;;;;17.28;80.72;95642.66;5006359;28;20061;-54
2021/04/30 10:22:26;;;;;;;13.85;12.35;;;;;;;17.73;77.55;95642.78;5007329;28;20069;-58
2021/04/30 10:25:15;;;;;;;13.88;12.43;;;;;;;17.93;73.42;95632.09;5011197;28;20077;-55
2021/04/30 10:27:44;;;;;;;15.70;12.35;;;;;;;17.53;75.53;95623.34;5011566;28;20073;-54
2021/04/30 10:30:16;;;;;;;14.35;12.07;;;;;;;17.86;74.03;95623.28;5008476;28;20066;-56
2021/04/30 10:32:49;;;;;;;12.35;11.05;;;;;;;18.25;71.23;95621.47;5016214;28;20069;-54
2021/04/30 10:35:23;;;;;;;13.90;12.43;;;;;;;18.41;66.66;95604.97;5010259;28;20065;-55
2021/04/30 10:37:52;;;;;;;14.90;11.95;;;;;;;18.16;69.11;95614.72;5042438;23;20066;-63
2021/04/30 10:40:20;;;;;;;12.77;11.47;;;;;;;17.23;77.32;95618.44;5025640;28;20081;-64
2021/04/30 10:42:47;;;;;;;13.82;12.43;;;;;;;18.14;69.66;95608.81;5025790;28;20677;-63
2021/04/30 10:45:16;;;;;;;14.73;13.20;;;;;;;19.11;68.99;95599.53;5025244;28;20053;-64
2021/04/30 10:48:04;;;;;;;13.40;12.00;;;;;;;18.66;66.92;95596.19;5026261;28;20068;-63
2021/04/30 10:50:33;;;;;;;12.93;10.90;;;;;;;18.22;71.79;95597.88;5016252;28;20069;-63
2021/04/30 10:53:23;;;;;;;14.90;11.98;;;;;;;17.51;79.80;95594.22;5006999;28;20556;-64
2021/04/30 10:55:51;;;;;;;12.33;10.93;;;;;;;18.52;73.31;95582.09;5017786;28;20084;-62
2021/04/30 10:58:35;;;;;;;12.95;11.55;;;;;;;17.67;81.74;95592.13;5018435;28;21052;-64
2021/04/30 11:01:21;;;;;;;14.05;11.52;;;;;;;18.15;74.34;95587.25;5012394;28;20081;-63
2021/04/30 11:04:18;;;;;;;13.60;11.20;;;;;;;17.96;75.07;95577.47;5019268;28;20073;-63
2021/04/30 11:06:49;;;;;;;12.00;10.80;;;;;;;18.45;72.58;95574.13;5006109;28;21314;-62
2021/04/30 11:09:38;;;;;;;13.18;11.13;;;;;;;18.25;74.56;95581.44;5018995;28;20072;-64
2021/04/30 11:12:20;;;;;;;14.02;12.18;;;;;;;18.30;74.53;95580.78;5009784;28;20061;-63
2021/04/30 11:15:02;;;;;;;13.95;12.55;;;;;;;17.90;77.40;95589.00;5009419;28;20060;-64
2021/04/30 11:17:52;;;;;;;14.45;12.15;;;;;;;18.21;78.16;95570.38;5018613;28;20077;-64
2021/04/30 11:20:22;;;;;;;13.82;11.88;;;;;;;18.98;70.91;95568.41;5014419;28;20065;-64
2021/04/30 11:23:18;;;;;;;14.13;12.63;;;;;;;18.69;69.80;95569.84;5011385;28;20077;-65
2021/04/30 11:26:19;;;;;;;14.20;12.60;;;;;;;19.17;72.08;95558.59;5016837;28;20061;-65